sensor_id;sensor_type;location;lat;lon;timestamp;noise_LAeq;noise_LA_min;noise_LA_max;noise_LA01;noise_LA95
64996;Laerm;51545;51.568;6.998;2023-09-07T00:01:53;36.37;31.69;41.44;;
64996;Laerm;51545;51.568;6.998;2023-09-07T00:04:19;40.99;33.13;53.55;;
64996;Laerm;51545;51.568;6.998;2023-09-07T00:06:45;35.08;30.62;49.38;;
64996;Laerm;51545;51.568;6.998;2023-09-07T00:09:11;34.26;29.58;39.48;;
64996;Laerm;51545;51.568;6.998;2023-09-07T00:11:37;34.37;28.99;42.74;;
64996;Laerm;51545;51.568;6.998;2023-09-07T00:14:03;34.34;29.67;41.25;;
64996;Laerm;51545;51.568;6.998;2023-09-07T00:16:31;35.09;31.21;39.72;;
64996;Laerm;51545;51.568;6.998;2023-09-07T00:19:00;34.91;30.55;41.90;;
64996;Laerm;51545;51.568;6.998;2023-09-07T00:21:26;34.52;30.35;44.97;;
64996;Laerm;51545;51.568;6.998;2023-09-07T00:23:51;35.84;32.61;40.22;;
64996;Laerm;51545;51.568;6.998;2023-09-07T00:26:16;37.23;31.53;45.48;;
64996;Laerm;51545;51.568;6.998;2023-09-07T00:28:42;35.34;31.31;41.19;;
64996;Laerm;51545;51.568;6.998;2023-09-07T00:31:07;34.95;31.08;45.15;;
64996;Laerm;51545;51.568;6.998;2023-09-07T00:33:33;35.58;30.51;44.77;;
64996;Laerm;51545;51.568;6.998;2023-09-07T00:35:58;34.38;30.31;42.01;;
64996;Laerm;51545;51.568;6.998;2023-09-07T00:38:26;35.01;31.61;39.95;;
64996;Laerm;51545;51.568;6.998;2023-09-07T00:40:51;34.75;31.01;43.79;;
64996;Laerm;51545;51.568;6.998;2023-09-07T00:43:17;33.39;29.10;45.83;;
64996;Laerm;51545;51.568;6.998;2023-09-07T00:45:43;34.92;30.98;43.56;;
64996;Laerm;51545;51.568;6.998;2023-09-07T00:48:09;35.69;31.27;44.33;;
64996;Laerm;51545;51.568;6.998;2023-09-07T00:50:36;36.67;31.68;44.83;;
64996;Laerm;51545;51.568;6.998;2023-09-07T00:53:02;35.77;31.25;47.83;;
64996;Laerm;51545;51.568;6.998;2023-09-07T00:55:28;35.11;29.97;41.59;;
64996;Laerm;51545;51.568;6.998;2023-09-07T00:57:57;35.51;31.05;42.23;;
64996;Laerm;51545;51.568;6.998;2023-09-07T01:00:23;38.11;30.83;50.23;;
64996;Laerm;51545;51.568;6.998;2023-09-07T01:02:49;36.78;32.65;44.55;;
64996;Laerm;51545;51.568;6.998;2023-09-07T01:05:15;36.38;31.40;42.84;;
64996;Laerm;51545;51.568;6.998;2023-09-07T01:07:46;36.15;31.41;43.33;;
64996;Laerm;51545;51.568;6.998;2023-09-07T01:10:13;37.04;31.47;42.54;;
64996;Laerm;51545;51.568;6.998;2023-09-07T01:12:40;35.46;30.77;40.43;;
64996;Laerm;51545;51.568;6.998;2023-09-07T01:15:05;35.54;31.74;46.24;;
64996;Laerm;51545;51.568;6.998;2023-09-07T01:17:32;35.36;31.42;40.17;;
64996;Laerm;51545;51.568;6.998;2023-09-07T01:19:59;37.21;32.85;45.18;;
64996;Laerm;51545;51.568;6.998;2023-09-07T01:22:31;35.53;30.11;49.91;;
64996;Laerm;51545;51.568;6.998;2023-09-07T01:24:57;35.77;30.89;47.62;;
64996;Laerm;51545;51.568;6.998;2023-09-07T01:27:23;36.47;31.57;44.32;;
64996;Laerm;51545;51.568;6.998;2023-09-07T01:29:48;36.37;31.89;47.02;;
64996;Laerm;51545;51.568;6.998;2023-09-07T01:32:14;36.44;31.88;43.39;;
64996;Laerm;51545;51.568;6.998;2023-09-07T01:34:40;36.40;33.00;45.73;;
64996;Laerm;51545;51.568;6.998;2023-09-07T01:37:05;35.67;30.98;43.08;;
64996;Laerm;51545;51.568;6.998;2023-09-07T01:39:31;36.50;31.57;45.84;;
64996;Laerm;51545;51.568;6.998;2023-09-07T01:41:56;36.37;32.77;41.76;;
64996;Laerm;51545;51.568;6.998;2023-09-07T01:44:22;35.79;31.18;45.01;;
64996;Laerm;51545;51.568;6.998;2023-09-07T01:46:47;35.19;32.15;49.46;;
64996;Laerm;51545;51.568;6.998;2023-09-07T01:49:12;35.78;32.52;49.17;;
64996;Laerm;51545;51.568;6.998;2023-09-07T01:51:38;36.87;33.51;40.57;;
64996;Laerm;51545;51.568;6.998;2023-09-07T01:54:04;37.01;32.34;47.35;;
64996;Laerm;51545;51.568;6.998;2023-09-07T01:56:30;36.47;32.40;42.13;;
64996;Laerm;51545;51.568;6.998;2023-09-07T01:58:55;36.29;33.07;41.69;;
64996;Laerm;51545;51.568;6.998;2023-09-07T02:01:26;36.13;32.02;45.20;;
64996;Laerm;51545;51.568;6.998;2023-09-07T02:03:52;36.62;32.74;44.66;;
64996;Laerm;51545;51.568;6.998;2023-09-07T02:06:18;37.92;33.33;48.28;;
64996;Laerm;51545;51.568;6.998;2023-09-07T02:08:44;36.47;32.62;41.22;;
64996;Laerm;51545;51.568;6.998;2023-09-07T02:11:09;37.43;33.20;48.14;;
64996;Laerm;51545;51.568;6.998;2023-09-07T02:13:35;41.22;38.43;43.82;;
64996;Laerm;51545;51.568;6.998;2023-09-07T02:16:04;40.29;37.37;43.98;;
64996;Laerm;51545;51.568;6.998;2023-09-07T02:18:31;40.30;37.70;43.84;;
64996;Laerm;51545;51.568;6.998;2023-09-07T02:21:03;40.76;37.82;44.52;;
64996;Laerm;51545;51.568;6.998;2023-09-07T02:23:31;42.61;37.73;64.94;;
64996;Laerm;51545;51.568;6.998;2023-09-07T02:25:57;40.87;37.59;49.71;;
64996;Laerm;51545;51.568;6.998;2023-09-07T02:28:23;40.86;37.94;44.80;;
64996;Laerm;51545;51.568;6.998;2023-09-07T02:30:49;40.77;37.80;47.32;;
64996;Laerm;51545;51.568;6.998;2023-09-07T02:33:15;40.71;37.67;43.52;;
64996;Laerm;51545;51.568;6.998;2023-09-07T02:35:40;41.23;38.35;45.43;;
64996;Laerm;51545;51.568;6.998;2023-09-07T02:38:05;41.08;37.88;53.36;;
64996;Laerm;51545;51.568;6.998;2023-09-07T02:40:31;41.03;38.16;45.40;;
64996;Laerm;51545;51.568;6.998;2023-09-07T02:42:56;40.48;37.89;46.51;;
64996;Laerm;51545;51.568;6.998;2023-09-07T02:45:22;40.94;37.95;44.64;;
64996;Laerm;51545;51.568;6.998;2023-09-07T02:47:47;40.73;38.44;46.38;;
64996;Laerm;51545;51.568;6.998;2023-09-07T02:50:16;41.17;38.71;43.29;;
64996;Laerm;51545;51.568;6.998;2023-09-07T02:52:43;41.46;38.19;55.68;;
64996;Laerm;51545;51.568;6.998;2023-09-07T02:55:08;41.63;38.99;47.87;;
64996;Laerm;51545;51.568;6.998;2023-09-07T02:57:34;41.01;37.99;49.91;;
64996;Laerm;51545;51.568;6.998;2023-09-07T03:00:00;41.60;38.21;48.40;;
64996;Laerm;51545;51.568;6.998;2023-09-07T03:02:27;42.07;38.92;49.25;;
64996;Laerm;51545;51.568;6.998;2023-09-07T03:04:55;41.97;38.58;46.61;;
64996;Laerm;51545;51.568;6.998;2023-09-07T03:07:23;41.12;37.55;46.37;;
64996;Laerm;51545;51.568;6.998;2023-09-07T03:09:51;40.98;38.10;46.07;;
64996;Laerm;51545;51.568;6.998;2023-09-07T03:12:17;41.51;37.74;47.47;;
64996;Laerm;51545;51.568;6.998;2023-09-07T03:14:43;41.60;37.77;49.64;;
64996;Laerm;51545;51.568;6.998;2023-09-07T03:17:09;41.28;37.42;47.18;;
64996;Laerm;51545;51.568;6.998;2023-09-07T03:19:36;41.23;37.83;47.32;;
64996;Laerm;51545;51.568;6.998;2023-09-07T03:22:03;41.19;37.03;46.58;;
64996;Laerm;51545;51.568;6.998;2023-09-07T03:24:28;41.67;38.09;46.88;;
64996;Laerm;51545;51.568;6.998;2023-09-07T03:26:54;41.68;38.99;46.88;;
64996;Laerm;51545;51.568;6.998;2023-09-07T03:29:19;41.58;38.23;46.42;;
64996;Laerm;51545;51.568;6.998;2023-09-07T03:31:45;41.61;38.57;47.60;;
64996;Laerm;51545;51.568;6.998;2023-09-07T03:34:11;41.70;38.02;47.11;;
64996;Laerm;51545;51.568;6.998;2023-09-07T03:36:37;42.63;36.85;47.95;;
64996;Laerm;51545;51.568;6.998;2023-09-07T03:39:02;41.98;38.05;55.81;;
64996;Laerm;51545;51.568;6.998;2023-09-07T03:41:28;42.74;40.12;45.78;;
64996;Laerm;51545;51.568;6.998;2023-09-07T03:43:56;42.79;39.01;47.31;;
64996;Laerm;51545;51.568;6.998;2023-09-07T03:46:22;42.25;38.97;47.87;;
64996;Laerm;51545;51.568;6.998;2023-09-07T03:48:47;41.84;39.17;46.31;;
64996;Laerm;51545;51.568;6.998;2023-09-07T03:51:12;41.80;38.43;47.32;;
64996;Laerm;51545;51.568;6.998;2023-09-07T03:53:38;42.26;38.93;48.10;;
64996;Laerm;51545;51.568;6.998;2023-09-07T03:56:04;42.84;39.57;48.44;;
64996;Laerm;51545;51.568;6.998;2023-09-07T03:58:29;42.76;39.45;48.28;;
64996;Laerm;51545;51.568;6.998;2023-09-07T04:00:58;42.99;39.24;48.00;;
64996;Laerm;51545;51.568;6.998;2023-09-07T04:03:24;42.92;39.80;53.09;;
64996;Laerm;51545;51.568;6.998;2023-09-07T04:05:50;43.19;39.96;49.73;;
64996;Laerm;51545;51.568;6.998;2023-09-07T04:08:16;43.48;40.18;49.79;;
64996;Laerm;51545;51.568;6.998;2023-09-07T04:10:41;43.64;39.99;51.96;;
64996;Laerm;51545;51.568;6.998;2023-09-07T04:13:07;44.34;41.10;51.46;;
64996;Laerm;51545;51.568;6.998;2023-09-07T04:15:43;44.38;40.78;52.68;;
64996;Laerm;51545;51.568;6.998;2023-09-07T04:18:10;42.64;40.00;46.79;;
64996;Laerm;51545;51.568;6.998;2023-09-07T04:20:38;43.30;39.88;54.47;;
64996;Laerm;51545;51.568;6.998;2023-09-07T04:23:03;43.46;40.18;50.59;;
64996;Laerm;51545;51.568;6.998;2023-09-07T04:25:29;42.49;39.90;56.77;;
64996;Laerm;51545;51.568;6.998;2023-09-07T04:27:54;42.98;39.89;48.21;;
64996;Laerm;51545;51.568;6.998;2023-09-07T04:30:22;42.24;39.03;47.87;;
64996;Laerm;51545;51.568;6.998;2023-09-07T04:32:48;41.56;38.08;50.12;;
64996;Laerm;51545;51.568;6.998;2023-09-07T04:35:13;42.24;38.48;58.58;;
64996;Laerm;51545;51.568;6.998;2023-09-07T04:37:41;43.20;39.34;48.30;;
64996;Laerm;51545;51.568;6.998;2023-09-07T04:40:07;45.35;39.38;67.20;;
64996;Laerm;51545;51.568;6.998;2023-09-07T04:42:33;44.27;40.12;57.77;;
64996;Laerm;51545;51.568;6.998;2023-09-07T04:44:58;44.18;40.45;57.59;;
64996;Laerm;51545;51.568;6.998;2023-09-07T04:47:24;44.68;41.06;52.50;;
64996;Laerm;51545;51.568;6.998;2023-09-07T04:49:49;45.97;40.02;68.87;;
64996;Laerm;51545;51.568;6.998;2023-09-07T04:52:16;44.78;40.01;61.41;;
64996;Laerm;51545;51.568;6.998;2023-09-07T04:54:41;43.53;40.42;48.01;;
64996;Laerm;51545;51.568;6.998;2023-09-07T04:57:07;44.48;41.29;59.60;;
64996;Laerm;51545;51.568;6.998;2023-09-07T04:59:32;46.93;40.93;71.23;;
64996;Laerm;51545;51.568;6.998;2023-09-07T05:02:01;44.52;41.07;54.31;;
64996;Laerm;51545;51.568;6.998;2023-09-07T05:04:27;43.25;39.45;49.46;;
64996;Laerm;51545;51.568;6.998;2023-09-07T05:06:52;43.65;40.40;52.64;;
64996;Laerm;51545;51.568;6.998;2023-09-07T05:09:18;44.21;39.30;69.73;;
64996;Laerm;51545;51.568;6.998;2023-09-07T05:11:45;45.15;40.37;58.74;;
64996;Laerm;51545;51.568;6.998;2023-09-07T05:14:10;43.58;38.85;53.16;;
64996;Laerm;51545;51.568;6.998;2023-09-07T05:16:36;43.26;39.70;56.05;;
64996;Laerm;51545;51.568;6.998;2023-09-07T05:19:01;43.26;39.71;49.38;;
64996;Laerm;51545;51.568;6.998;2023-09-07T05:21:27;44.18;40.67;53.76;;
64996;Laerm;51545;51.568;6.998;2023-09-07T05:23:52;44.46;39.38;63.90;;
64996;Laerm;51545;51.568;6.998;2023-09-07T05:26:23;45.68;40.27;67.22;;
64996;Laerm;51545;51.568;6.998;2023-09-07T05:28:50;44.26;39.10;58.29;;
64996;Laerm;51545;51.568;6.998;2023-09-07T05:31:15;43.94;38.68;59.42;;
64996;Laerm;51545;51.568;6.998;2023-09-07T05:33:41;43.94;39.50;55.15;;
64996;Laerm;51545;51.568;6.998;2023-09-07T05:36:06;43.73;39.90;59.78;;
64996;Laerm;51545;51.568;6.998;2023-09-07T05:38:32;45.12;39.07;61.46;;
64996;Laerm;51545;51.568;6.998;2023-09-07T05:40:57;44.30;40.35;60.25;;
64996;Laerm;51545;51.568;6.998;2023-09-07T05:43:23;44.63;39.29;61.71;;
64996;Laerm;51545;51.568;6.998;2023-09-07T05:45:48;44.69;38.69;63.11;;
64996;Laerm;51545;51.568;6.998;2023-09-07T05:48:14;45.46;39.72;63.75;;
64996;Laerm;51545;51.568;6.998;2023-09-07T05:50:43;43.34;39.48;53.14;;
64996;Laerm;51545;51.568;6.998;2023-09-07T05:53:09;44.73;39.86;60.32;;
64996;Laerm;51545;51.568;6.998;2023-09-07T05:55:35;46.38;38.61;64.20;;
64996;Laerm;51545;51.568;6.998;2023-09-07T05:58:04;52.21;39.16;75.12;;
64996;Laerm;51545;51.568;6.998;2023-09-07T06:00:30;45.15;39.29;61.92;;
64996;Laerm;51545;51.568;6.998;2023-09-07T06:02:55;43.61;38.75;64.66;;
64996;Laerm;51545;51.568;6.998;2023-09-07T06:05:21;42.57;38.96;58.45;;
64996;Laerm;51545;51.568;6.998;2023-09-07T06:07:46;42.95;38.12;55.25;;
64996;Laerm;51545;51.568;6.998;2023-09-07T06:10:12;42.22;38.62;53.78;;
64996;Laerm;51545;51.568;6.998;2023-09-07T06:12:37;41.46;37.17;54.25;;
64996;Laerm;51545;51.568;6.998;2023-09-07T06:15:03;41.72;38.35;55.18;;
64996;Laerm;51545;51.568;6.998;2023-09-07T06:17:29;41.68;37.65;52.82;;
64996;Laerm;51545;51.568;6.998;2023-09-07T06:19:55;43.01;38.55;54.90;;
64996;Laerm;51545;51.568;6.998;2023-09-07T06:22:21;44.38;38.24;59.02;;
64996;Laerm;51545;51.568;6.998;2023-09-07T06:24:46;44.44;38.07;57.25;;
64996;Laerm;51545;51.568;6.998;2023-09-07T06:27:12;42.66;38.59;52.89;;
64996;Laerm;51545;51.568;6.998;2023-09-07T06:29:37;43.56;37.69;59.79;;
64996;Laerm;51545;51.568;6.998;2023-09-07T06:32:03;42.49;36.70;65.59;;
64996;Laerm;51545;51.568;6.998;2023-09-07T06:34:28;44.34;38.93;60.34;;
64996;Laerm;51545;51.568;6.998;2023-09-07T06:36:54;43.76;37.99;63.59;;
64996;Laerm;51545;51.568;6.998;2023-09-07T06:39:19;45.15;38.10;63.60;;
64996;Laerm;51545;51.568;6.998;2023-09-07T06:41:46;44.01;37.47;58.67;;
64996;Laerm;51545;51.568;6.998;2023-09-07T06:44:11;48.03;38.46;75.35;;
64996;Laerm;51545;51.568;6.998;2023-09-07T06:46:37;44.72;38.39;63.35;;
64996;Laerm;51545;51.568;6.998;2023-09-07T06:49:02;43.29;37.78;58.32;;
64996;Laerm;51545;51.568;6.998;2023-09-07T06:51:30;42.89;38.05;55.38;;
64996;Laerm;51545;51.568;6.998;2023-09-07T06:53:56;42.45;37.45;60.28;;
64996;Laerm;51545;51.568;6.998;2023-09-07T06:56:21;45.15;37.78;59.37;;
64996;Laerm;51545;51.568;6.998;2023-09-07T06:58:47;41.33;35.81;54.45;;
64996;Laerm;51545;51.568;6.998;2023-09-07T07:01:13;41.92;37.56;53.58;;
64996;Laerm;51545;51.568;6.998;2023-09-07T07:03:38;41.88;36.76;60.86;;
64996;Laerm;51545;51.568;6.998;2023-09-07T07:06:04;40.18;36.31;51.82;;
64996;Laerm;51545;51.568;6.998;2023-09-07T07:08:29;39.75;36.53;50.65;;
64996;Laerm;51545;51.568;6.998;2023-09-07T07:10:54;41.58;35.78;67.97;;
64996;Laerm;51545;51.568;6.998;2023-09-07T07:13:20;41.88;36.10;48.96;;
64996;Laerm;51545;51.568;6.998;2023-09-07T07:15:45;40.55;35.69;57.72;;
64996;Laerm;51545;51.568;6.998;2023-09-07T07:18:11;39.24;36.20;50.54;;
64996;Laerm;51545;51.568;6.998;2023-09-07T07:20:39;41.12;36.86;49.84;;
64996;Laerm;51545;51.568;6.998;2023-09-07T07:23:05;40.64;36.30;48.39;;
64996;Laerm;51545;51.568;6.998;2023-09-07T07:25:34;39.81;36.47;46.78;;
64996;Laerm;51545;51.568;6.998;2023-09-07T07:28:01;41.52;36.03;58.06;;
64996;Laerm;51545;51.568;6.998;2023-09-07T07:30:28;39.99;35.74;51.35;;
64996;Laerm;51545;51.568;6.998;2023-09-07T07:32:56;39.60;35.47;48.76;;
64996;Laerm;51545;51.568;6.998;2023-09-07T07:35:22;39.54;34.07;46.99;;
64996;Laerm;51545;51.568;6.998;2023-09-07T07:37:49;38.65;34.80;54.60;;
64996;Laerm;51545;51.568;6.998;2023-09-07T07:40:15;55.30;35.74;80.38;;
64996;Laerm;51545;51.568;6.998;2023-09-07T07:42:40;40.02;35.48;54.10;;
64996;Laerm;51545;51.568;6.998;2023-09-07T07:45:06;51.61;35.97;80.71;;
64996;Laerm;51545;51.568;6.998;2023-09-07T07:47:32;41.89;35.48;62.09;;
64996;Laerm;51545;51.568;6.998;2023-09-07T07:49:57;40.28;35.14;52.37;;
64996;Laerm;51545;51.568;6.998;2023-09-07T07:52:23;40.01;34.74;49.82;;
64996;Laerm;51545;51.568;6.998;2023-09-07T07:54:48;41.48;35.84;61.40;;
64996;Laerm;51545;51.568;6.998;2023-09-07T07:57:14;39.72;34.31;48.58;;
64996;Laerm;51545;51.568;6.998;2023-09-07T07:59:39;39.63;35.51;49.25;;
64996;Laerm;51545;51.568;6.998;2023-09-07T08:02:05;39.14;34.40;48.67;;
64996;Laerm;51545;51.568;6.998;2023-09-07T08:04:31;40.08;35.76;47.90;;
64996;Laerm;51545;51.568;6.998;2023-09-07T08:06:58;39.29;34.98;47.27;;
64996;Laerm;51545;51.568;6.998;2023-09-07T08:09:31;38.76;35.29;46.56;;
64996;Laerm;51545;51.568;6.998;2023-09-07T08:11:57;41.82;36.45;58.30;;
64996;Laerm;51545;51.568;6.998;2023-09-07T08:14:26;43.05;34.20;63.29;;
64996;Laerm;51545;51.568;6.998;2023-09-07T08:16:53;67.01;34.90;96.38;;
64996;Laerm;51545;51.568;6.998;2023-09-07T08:19:18;39.28;35.41;52.74;;
64996;Laerm;51545;51.568;6.998;2023-09-07T08:21:45;38.25;34.31;44.48;;
64996;Laerm;51545;51.568;6.998;2023-09-07T08:24:11;38.64;35.10;46.01;;
64996;Laerm;51545;51.568;6.998;2023-09-07T08:26:37;40.24;35.36;60.37;;
64996;Laerm;51545;51.568;6.998;2023-09-07T08:29:05;47.42;36.22;57.97;;
64996;Laerm;51545;51.568;6.998;2023-09-07T08:31:32;40.83;34.57;57.08;;
64996;Laerm;51545;51.568;6.998;2023-09-07T08:34:03;40.91;35.69;53.53;;
64996;Laerm;51545;51.568;6.998;2023-09-07T08:36:29;40.37;36.09;58.89;;
64996;Laerm;51545;51.568;6.998;2023-09-07T08:38:58;40.29;35.49;61.63;;
64996;Laerm;51545;51.568;6.998;2023-09-07T08:41:26;40.59;35.21;65.33;;
64996;Laerm;51545;51.568;6.998;2023-09-07T08:43:53;41.70;35.88;56.27;;
64996;Laerm;51545;51.568;6.998;2023-09-07T08:46:19;42.23;35.80;51.99;;
64996;Laerm;51545;51.568;6.998;2023-09-07T08:48:48;38.43;35.08;43.24;;
64996;Laerm;51545;51.568;6.998;2023-09-07T08:51:18;51.77;36.63;68.71;;
64996;Laerm;51545;51.568;6.998;2023-09-07T08:53:44;39.46;35.65;51.95;;
64996;Laerm;51545;51.568;6.998;2023-09-07T08:56:12;38.80;34.51;45.75;;
64996;Laerm;51545;51.568;6.998;2023-09-07T08:58:38;39.11;34.12;51.61;;
64996;Laerm;51545;51.568;6.998;2023-09-07T09:01:07;38.72;35.11;44.18;;
64996;Laerm;51545;51.568;6.998;2023-09-07T09:03:34;38.85;33.94;58.99;;
64996;Laerm;51545;51.568;6.998;2023-09-07T09:06:00;39.25;35.07;50.81;;
64996;Laerm;51545;51.568;6.998;2023-09-07T09:08:27;38.62;34.82;46.14;;
64996;Laerm;51545;51.568;6.998;2023-09-07T09:11:02;39.09;34.71;45.94;;
64996;Laerm;51545;51.568;6.998;2023-09-07T09:13:30;39.01;35.11;51.79;;
64996;Laerm;51545;51.568;6.998;2023-09-07T09:15:59;40.45;34.42;49.81;;
64996;Laerm;51545;51.568;6.998;2023-09-07T09:18:24;38.79;34.95;47.28;;
64996;Laerm;51545;51.568;6.998;2023-09-07T09:20:52;40.13;35.81;50.75;;
64996;Laerm;51545;51.568;6.998;2023-09-07T09:23:17;40.83;33.91;57.93;;
64996;Laerm;51545;51.568;6.998;2023-09-07T09:25:43;41.70;35.37;62.98;;
64996;Laerm;51545;51.568;6.998;2023-09-07T09:28:09;41.29;35.76;53.51;;
64996;Laerm;51545;51.568;6.998;2023-09-07T09:30:38;38.76;34.52;52.50;;
64996;Laerm;51545;51.568;6.998;2023-09-07T09:33:05;40.53;34.84;51.33;;
64996;Laerm;51545;51.568;6.998;2023-09-07T09:35:31;41.83;34.94;58.12;;
64996;Laerm;51545;51.568;6.998;2023-09-07T09:38:00;38.48;34.23;46.83;;
64996;Laerm;51545;51.568;6.998;2023-09-07T09:40:30;46.97;35.57;77.63;;
64996;Laerm;51545;51.568;6.998;2023-09-07T09:42:57;40.79;35.25;57.34;;
64996;Laerm;51545;51.568;6.998;2023-09-07T09:45:26;39.82;35.75;48.37;;
64996;Laerm;51545;51.568;6.998;2023-09-07T09:47:54;43.27;36.23;66.72;;
64996;Laerm;51545;51.568;6.998;2023-09-07T09:50:22;44.99;35.35;75.95;;
64996;Laerm;51545;51.568;6.998;2023-09-07T09:52:48;41.65;35.44;59.08;;
64996;Laerm;51545;51.568;6.998;2023-09-07T09:55:15;45.60;36.26;59.90;;
64996;Laerm;51545;51.568;6.998;2023-09-07T09:57:41;53.28;34.55;75.18;;
64996;Laerm;51545;51.568;6.998;2023-09-07T10:00:07;59.78;38.47;79.20;;
64996;Laerm;51545;51.568;6.998;2023-09-07T10:02:43;57.13;36.70;81.36;;
64996;Laerm;51545;51.568;6.998;2023-09-07T10:05:10;56.79;35.27;85.46;;
64996;Laerm;51545;51.568;6.998;2023-09-07T10:07:45;41.94;35.47;61.96;;
64996;Laerm;51545;51.568;6.998;2023-09-07T10:10:14;38.36;34.52;44.49;;
64996;Laerm;51545;51.568;6.998;2023-09-07T10:12:43;39.39;33.85;59.60;;
64996;Laerm;51545;51.568;6.998;2023-09-07T10:15:25;39.16;33.89;57.84;;
64996;Laerm;51545;51.568;6.998;2023-09-07T10:18:02;40.73;33.91;59.17;;
64996;Laerm;51545;51.568;6.998;2023-09-07T10:20:28;38.11;34.20;51.11;;
64996;Laerm;51545;51.568;6.998;2023-09-07T10:23:05;47.16;34.89;73.49;;
64996;Laerm;51545;51.568;6.998;2023-09-07T10:25:30;58.22;33.60;86.66;;
64996;Laerm;51545;51.568;6.998;2023-09-07T10:27:57;53.99;34.69;77.44;;
64996;Laerm;51545;51.568;6.998;2023-09-07T10:30:25;49.92;35.21;66.24;;
64996;Laerm;51545;51.568;6.998;2023-09-07T10:32:50;44.67;33.97;74.89;;
64996;Laerm;51545;51.568;6.998;2023-09-07T10:35:19;49.09;35.99;72.30;;
64996;Laerm;51545;51.568;6.998;2023-09-07T10:37:47;50.81;40.56;68.10;;
64996;Laerm;51545;51.568;6.998;2023-09-07T10:40:18;47.75;36.00;67.26;;
64996;Laerm;51545;51.568;6.998;2023-09-07T10:42:44;40.60;36.18;49.00;;
64996;Laerm;51545;51.568;6.998;2023-09-07T10:45:11;48.23;35.37;71.10;;
64996;Laerm;51545;51.568;6.998;2023-09-07T10:47:44;39.95;33.11;55.04;;
64996;Laerm;51545;51.568;6.998;2023-09-07T10:50:13;43.55;33.52;63.18;;
64996;Laerm;51545;51.568;6.998;2023-09-07T10:52:41;41.10;35.01;59.59;;
64996;Laerm;51545;51.568;6.998;2023-09-07T10:55:08;56.48;34.63;86.20;;
64996;Laerm;51545;51.568;6.998;2023-09-07T10:57:46;38.20;33.53;45.16;;
64996;Laerm;51545;51.568;6.998;2023-09-07T11:00:13;38.14;34.81;46.88;;
64996;Laerm;51545;51.568;6.998;2023-09-07T11:02:40;38.81;33.94;47.99;;
64996;Laerm;51545;51.568;6.998;2023-09-07T11:05:06;40.97;35.81;51.79;;
64996;Laerm;51545;51.568;6.998;2023-09-07T11:07:33;38.46;35.26;50.89;;
64996;Laerm;51545;51.568;6.998;2023-09-07T11:10:04;42.90;34.90;58.40;;
64996;Laerm;51545;51.568;6.998;2023-09-07T11:12:37;48.53;35.48;69.79;;
64996;Laerm;51545;51.568;6.998;2023-09-07T11:15:08;38.53;34.35;51.42;;
64996;Laerm;51545;51.568;6.998;2023-09-07T11:17:39;38.76;35.02;54.43;;
64996;Laerm;51545;51.568;6.998;2023-09-07T11:20:09;38.20;34.96;47.91;;
64996;Laerm;51545;51.568;6.998;2023-09-07T11:22:37;38.57;33.93;46.60;;
64996;Laerm;51545;51.568;6.998;2023-09-07T11:25:06;38.13;33.61;46.89;;
64996;Laerm;51545;51.568;6.998;2023-09-07T11:27:32;38.91;34.48;46.64;;
64996;Laerm;51545;51.568;6.998;2023-09-07T11:29:57;38.40;33.95;49.10;;
64996;Laerm;51545;51.568;6.998;2023-09-07T11:32:24;47.11;34.57;63.79;;
64996;Laerm;51545;51.568;6.998;2023-09-07T11:34:53;42.71;33.91;58.87;;
64996;Laerm;51545;51.568;6.998;2023-09-07T11:37:24;38.65;34.85;53.68;;
64996;Laerm;51545;51.568;6.998;2023-09-07T11:39:49;38.10;33.71;53.62;;
64996;Laerm;51545;51.568;6.998;2023-09-07T11:42:15;39.69;34.90;52.37;;
64996;Laerm;51545;51.568;6.998;2023-09-07T11:44:40;38.97;34.87;49.51;;
64996;Laerm;51545;51.568;6.998;2023-09-07T11:47:06;42.95;34.98;62.26;;
64996;Laerm;51545;51.568;6.998;2023-09-07T11:49:32;41.22;36.42;51.79;;
64996;Laerm;51545;51.568;6.998;2023-09-07T11:51:58;43.07;36.34;60.43;;
64996;Laerm;51545;51.568;6.998;2023-09-07T11:54:23;41.08;35.69;56.53;;
64996;Laerm;51545;51.568;6.998;2023-09-07T11:56:48;39.30;33.96;55.28;;
64996;Laerm;51545;51.568;6.998;2023-09-07T11:59:14;41.95;35.46;65.63;;
64996;Laerm;51545;51.568;6.998;2023-09-07T12:01:42;39.77;34.62;63.61;;
64996;Laerm;51545;51.568;6.998;2023-09-07T12:04:07;38.70;33.09;51.01;;
64996;Laerm;51545;51.568;6.998;2023-09-07T12:06:33;37.32;32.73;44.12;;
64996;Laerm;51545;51.568;6.998;2023-09-07T12:09:03;38.58;35.07;56.68;;
64996;Laerm;51545;51.568;6.998;2023-09-07T12:11:29;39.86;34.52;50.83;;
64996;Laerm;51545;51.568;6.998;2023-09-07T12:13:56;38.87;34.87;49.64;;
64996;Laerm;51545;51.568;6.998;2023-09-07T12:16:21;40.49;36.12;49.70;;
64996;Laerm;51545;51.568;6.998;2023-09-07T12:18:47;40.00;36.28;54.71;;
64996;Laerm;51545;51.568;6.998;2023-09-07T12:21:12;40.55;35.15;50.78;;
64996;Laerm;51545;51.568;6.998;2023-09-07T12:23:38;39.78;35.71;55.20;;
64996;Laerm;51545;51.568;6.998;2023-09-07T12:26:03;38.47;34.75;46.58;;
64996;Laerm;51545;51.568;6.998;2023-09-07T12:28:32;43.55;35.67;65.14;;
64996;Laerm;51545;51.568;6.998;2023-09-07T12:30:59;48.05;36.06;80.44;;
64996;Laerm;51545;51.568;6.998;2023-09-07T12:33:25;44.60;34.28;74.43;;
64996;Laerm;51545;51.568;6.998;2023-09-07T12:35:55;39.21;34.87;58.41;;
64996;Laerm;51545;51.568;6.998;2023-09-07T12:38:22;39.68;35.30;50.45;;
64996;Laerm;51545;51.568;6.998;2023-09-07T12:40:52;47.13;35.84;60.12;;
64996;Laerm;51545;51.568;6.998;2023-09-07T12:43:18;38.39;34.88;49.40;;
64996;Laerm;51545;51.568;6.998;2023-09-07T12:45:45;37.81;34.34;49.75;;
64996;Laerm;51545;51.568;6.998;2023-09-07T12:48:11;38.88;34.21;52.46;;
64996;Laerm;51545;51.568;6.998;2023-09-07T12:50:36;39.90;35.21;57.18;;
64996;Laerm;51545;51.568;6.998;2023-09-07T12:53:02;40.66;36.13;48.90;;
64996;Laerm;51545;51.568;6.998;2023-09-07T12:55:27;39.41;35.09;55.01;;
64996;Laerm;51545;51.568;6.998;2023-09-07T12:57:55;38.12;33.03;54.57;;
64996;Laerm;51545;51.568;6.998;2023-09-07T13:00:20;39.09;34.42;53.22;;
64996;Laerm;51545;51.568;6.998;2023-09-07T13:02:46;39.34;35.56;50.50;;
64996;Laerm;51545;51.568;6.998;2023-09-07T13:05:11;39.28;34.76;57.66;;
64996;Laerm;51545;51.568;6.998;2023-09-07T13:07:37;38.68;33.96;47.84;;
64996;Laerm;51545;51.568;6.998;2023-09-07T13:10:04;40.65;35.44;51.10;;
64996;Laerm;51545;51.568;6.998;2023-09-07T13:12:34;41.15;36.30;58.21;;
64996;Laerm;51545;51.568;6.998;2023-09-07T13:15:00;39.34;35.43;48.39;;
64996;Laerm;51545;51.568;6.998;2023-09-07T13:17:26;41.59;34.89;59.39;;
64996;Laerm;51545;51.568;6.998;2023-09-07T13:19:52;40.51;35.00;54.29;;
64996;Laerm;51545;51.568;6.998;2023-09-07T13:22:17;39.36;34.13;56.53;;
64996;Laerm;51545;51.568;6.998;2023-09-07T13:24:43;40.72;35.10;52.84;;
64996;Laerm;51545;51.568;6.998;2023-09-07T13:27:09;39.32;34.94;50.59;;
64996;Laerm;51545;51.568;6.998;2023-09-07T13:29:36;42.51;34.81;68.93;;
64996;Laerm;51545;51.568;6.998;2023-09-07T13:32:03;41.06;35.19;64.17;;
64996;Laerm;51545;51.568;6.998;2023-09-07T13:34:29;39.44;33.97;49.48;;
64996;Laerm;51545;51.568;6.998;2023-09-07T13:36:55;42.50;35.59;62.07;;
64996;Laerm;51545;51.568;6.998;2023-09-07T13:39:21;39.19;35.30;52.50;;
64996;Laerm;51545;51.568;6.998;2023-09-07T13:41:47;40.04;34.89;53.53;;